Time;durP1;ratioP1;P1;durP2;ratioP2;P2;SDS_P1;SDS_P2;PMS_P1;PMS_P2;Temp;Humidity;BMP_temperature;BMP_pressure;BME280_temperature;BME280_humidity;BME280_pressure;Samples;Min_cycle;Max_cycle;Signal;HPM_P1;HPM_P2
2023/09/09 00:00:58;;;;;;;18.05;16.25;;;15.90;99.90;;;;;;4937071;28;20138;-78
2023/09/09 00:03:25;;;;;;;18.00;16.15;;;16.00;99.90;;;;;;4932773;28;21705;-81
2023/09/09 00:05:51;;;;;;;17.73;14.55;;;16.00;99.90;;;;;;4935823;28;20089;-83
2023/09/09 00:08:18;;;;;;;12.10;10.10;;;16.00;99.90;;;;;;4937728;28;20066;-80
2023/09/09 00:10:45;;;;;;;12.75;11.40;;;16.00;99.90;;;;;;4927662;28;20054;-84
2023/09/09 00:13:11;;;;;;;11.98;10.38;;;16.00;99.90;;;;;;4935196;28;20054;-80
2023/09/09 00:15:36;;;;;;;8.15;7.35;;;16.00;99.90;;;;;;4917754;29;20083;-80
2023/09/09 00:18:03;;;;;;;12.13;8.40;;;16.00;99.90;;;;;;4927583;28;20062;-80
2023/09/09 00:20:34;;;;;;;8.38;7.57;;;15.90;99.90;;;;;;4920267;28;20512;-80
2023/09/09 00:23:07;;;;;;;15.57;14.02;;;15.90;99.90;;;;;;4927783;28;20054;-80
2023/09/09 00:25:33;;;;;;;11.70;10.50;;;15.90;99.90;;;;;;4929003;28;20055;-81
2023/09/09 00:27:59;;;;;;;13.75;12.23;;;15.80;99.90;;;;;;4919065;28;20398;-80
2023/09/09 00:30:24;;;;;;;10.30;9.27;;;15.80;99.90;;;;;;4935499;28;20059;-80
2023/09/09 00:32:50;;;;;;;10.23;9.23;;;15.80;99.90;;;;;;4919521;28;20058;-80
2023/09/09 00:35:16;;;;;;;7.10;5.25;;;15.80;99.90;;;;;;4919305;28;20059;-81
2023/09/09 00:37:41;;;;;;;10.70;8.68;;;15.80;99.90;;;;;;4930749;28;20090;-81
2023/09/09 00:40:08;;;;;;;8.48;6.05;;;15.70;99.90;;;;;;4932138;28;20512;-80
2023/09/09 00:42:33;;;;;;;10.50;7.28;;;15.70;99.90;;;;;;4930066;28;20071;-80
2023/09/09 00:44:59;;;;;;;16.35;12.88;;;15.70;99.90;;;;;;4924690;29;20137;-79
2023/09/09 00:47:26;;;;;;;10.40;8.52;;;15.70;99.90;;;;;;4918486;28;20065;-80
2023/09/09 00:49:51;;;;;;;13.93;12.52;;;15.60;99.90;;;;;;4931950;28;20055;-80
2023/09/09 00:52:17;;;;;;;13.68;12.38;;;15.60;99.90;;;;;;4915848;28;20097;-80
2023/09/09 00:54:43;;;;;;;20.98;18.88;;;15.70;99.90;;;;;;4916896;28;20226;-81
2023/09/09 00:57:11;;;;;;;21.67;19.48;;;15.60;99.90;;;;;;4893119;29;20067;-83
2023/09/09 00:59:38;;;;;;;18.73;16.42;;;12.70;99.90;;;;;;4917163;28;20520;-81
2023/09/09 01:02:03;;;;;;;20.48;17.98;;;15.70;99.90;;;;;;4922626;28;20095;-81
2023/09/09 01:04:30;;;;;;;18.17;16.27;;;15.60;99.90;;;;;;4916197;28;20063;-81
2023/09/09 01:07:01;;;;;;;15.35;13.60;;;15.60;99.90;;;;;;4888485;28;20039;-82
2023/09/09 01:09:27;;;;;;;13.10;11.80;;;15.50;99.90;;;;;;4900241;28;20063;-82
2023/09/09 01:11:53;;;;;;;15.10;12.40;;;15.60;99.90;;;;;;4902094;28;20976;-81
2023/09/09 01:14:19;;;;;;;19.58;17.55;;;15.50;99.90;;;;;;4918684;28;20055;-82
2023/09/09 01:16:48;;;;;;;19.98;16.65;;;15.70;99.90;;;;;;4903572;28;20102;-82
2023/09/09 01:19:16;;;;;;;13.77;12.30;;;15.60;99.90;;;;;;4922597;28;20078;-81
2023/09/09 01:21:45;;;;;;;15.38;13.77;;;15.60;99.90;;;;;;4900069;29;20143;-81
2023/09/09 01:24:15;;;;;;;15.57;12.90;;;15.60;99.90;;;;;;4919376;28;20129;-81
2023/09/09 01:26:42;;;;;;;13.85;9.10;;;15.50;99.90;;;;;;4919910;28;20054;-80
2023/09/09 01:29:08;;;;;;;12.85;11.55;;;15.60;99.90;;;;;;4919849;28;20513;-81
2023/09/09 01:31:33;;;;;;;7.93;7.20;;;15.60;99.90;;;;;;4924191;28;20059;-81
2023/09/09 01:33:59;;;;;;;7.78;7.05;;;15.60;99.90;;;;;;4925469;28;20548;-81
2023/09/09 01:36:25;;;;;;;5.78;5.20;;;15.60;99.90;;;;;;4918611;28;20081;-81
2023/09/09 01:38:50;;;;;;;7.55;6.80;;;15.60;99.90;;;;;;4920186;28;20724;-80
2023/09/09 01:41:16;;;;;;;8.25;7.18;;;15.60;99.90;;;;;;4928629;28;20146;-82
2023/09/09 01:43:42;;;;;;;11.50;9.60;;;15.60;99.90;;;;;;4920913;28;20938;-80
2023/09/09 01:46:08;;;;;;;13.18;11.77;;;15.60;99.90;;;;;;4887519;28;20462;-80
2023/09/09 01:48:34;;;;;;;15.60;14.05;;;15.60;99.90;;;;;;4921628;28;20059;-81
2023/09/09 01:51:00;;;;;;;16.17;13.65;;;15.60;99.90;;;;;;4921504;28;20067;-81
2023/09/09 01:53:25;;;;;;;16.48;14.77;;;15.50;99.90;;;;;;4924386;28;20101;-80
2023/09/09 01:55:51;;;;;;;21.48;17.70;;;15.50;99.90;;;;;;4938249;28;20739;-80
2023/09/09 01:58:17;;;;;;;18.20;16.20;;;15.50;99.90;;;;;;4935475;28;20055;-81
2023/09/09 02:00:43;;;;;;;14.38;12.23;;;17.70;99.90;;;;;;4930782;29;20067;-81
2023/09/09 02:03:08;;;;;;;11.15;10.05;;;15.50;99.90;;;;;;4935976;28;20061;-81
2023/09/09 02:05:34;;;;;;;10.88;8.77;;;15.50;99.90;;;;;;4936493;28;20797;-80
2023/09/09 02:08:00;;;;;;;14.23;12.82;;;15.50;99.90;;;;;;4921558;28;20143;-81
2023/09/09 02:10:26;;;;;;;15.10;11.88;;;15.50;99.90;;;;;;4934543;28;20432;-81
2023/09/09 02:12:52;;;;;;;16.55;14.82;;;15.40;99.90;;;;;;4921421;28;20055;-81
2023/09/09 02:15:18;;;;;;;17.17;15.45;;;15.40;99.90;;;;;;4921649;28;20149;-81
2023/09/09 02:17:46;;;;;;;20.73;18.60;;;12.20;99.90;;;;;;4912864;28;20091;-81
2023/09/09 02:20:12;;;;;;;17.23;15.43;;;15.40;99.90;;;;;;4934456;28;20054;-81
2023/09/09 02:22:38;;;;;;;17.80;15.85;;;15.40;99.90;;;;;;4926940;28;20055;-81
2023/09/09 02:25:04;;;;;;;18.13;15.60;;;15.40;99.90;;;;;;4936761;28;20065;-81
2023/09/09 02:27:30;;;;;;;17.23;15.45;;;15.50;99.90;;;;;;4937048;28;20552;-80
2023/09/09 02:29:56;;;;;;;15.68;12.30;;;15.50;99.90;;;;;;4931438;28;20059;-82
2023/09/09 02:32:22;;;;;;;14.38;11.98;;;15.40;99.90;;;;;;4933103;28;20707;-80
2023/09/09 02:34:47;;;;;;;13.85;12.25;;;15.40;99.90;;;;;;4936059;28;20211;-80
2023/09/09 02:37:22;;;;;;;12.32;11.15;;;15.40;99.90;;;;;;4934308;28;20058;-79
2023/09/09 02:39:49;;;;;;;17.85;13.07;;;15.30;99.90;;;;;;4936384;28;20572;-83
2023/09/09 02:42:17;;;;;;;13.85;12.40;;;15.20;99.90;;;;;;4934281;28;20063;-80
2023/09/09 02:44:43;;;;;;;11.13;9.13;;;15.30;99.90;;;;;;4936070;28;20059;-81
2023/09/09 02:47:10;;;;;;;10.00;9.00;;;15.30;99.90;;;;;;4930361;28;20055;-80
2023/09/09 02:49:37;;;;;;;8.02;6.25;;;15.20;99.90;;;;;;4941982;28;20551;-81
2023/09/09 02:52:03;;;;;;;6.75;5.93;;;15.20;99.90;;;;;;4921043;28;20063;-81
2023/09/09 02:54:29;;;;;;;5.88;4.70;;;15.20;99.90;;;;;;4932862;28;20572;-79
2023/09/09 02:56:55;;;;;;;7.57;6.15;;;15.20;99.90;;;;;;4936776;28;20051;-80
2023/09/09 02:59:22;;;;;;;8.52;5.85;;;15.20;99.90;;;;;;4953388;28;20558;-82
2023/09/09 03:01:47;;;;;;;7.25;5.63;;;15.10;99.90;;;;;;4937192;28;20070;-80
2023/09/09 03:04:13;;;;;;;7.15;6.45;;;15.10;99.90;;;;;;4937055;28;20131;-80
2023/09/09 03:06:39;;;;;;;10.75;9.10;;;15.10;99.90;;;;;;4936361;28;20667;-81
2023/09/09 03:09:05;;;;;;;10.23;8.38;;;15.10;99.90;;;;;;4935911;28;20058;-82
2023/09/09 03:11:32;;;;;;;11.48;9.80;;;;;;;;;;4936014;28;20058;-80
2023/09/09 03:13:58;;;;;;;14.40;11.85;;;15.00;99.90;;;;;;4936351;28;20528;-80
2023/09/09 03:16:24;;;;;;;10.02;8.32;;;15.00;99.90;;;;;;4932192;28;20063;-78
2023/09/09 03:18:50;;;;;;;9.80;7.03;;;15.10;99.90;;;;;;4921853;28;20066;-79
2023/09/09 03:21:15;;;;;;;17.88;11.13;;;16.80;99.90;;;;;;4924618;28;20186;-83
2023/09/09 03:23:41;;;;;;;19.38;17.48;;;15.00;99.90;;;;;;4952765;28;20077;-79
2023/09/09 03:26:09;;;;;;;19.45;17.48;;;15.00;99.90;;;;;;4946560;28;20059;-79
2023/09/09 03:28:35;;;;;;;16.63;15.00;;;15.00;99.90;;;;;;4917254;28;20097;-80
2023/09/09 03:31:01;;;;;;;17.67;15.25;;;15.10;99.90;;;;;;4936413;28;20085;-78
2023/09/09 03:33:27;;;;;;;19.95;17.80;;;15.10;99.90;;;;;;4936237;28;20070;-79
2023/09/09 03:35:53;;;;;;;21.20;19.05;;;15.20;99.90;;;;;;4934570;28;20539;-80
2023/09/09 03:38:19;;;;;;;40.22;34.08;;;15.40;99.90;;;;;;4917008;29;20063;-79
2023/09/09 03:40:45;;;;;;;30.63;27.35;;;15.20;99.90;;;;;;4929145;28;20109;-79
2023/09/09 03:43:14;;;;;;;44.25;37.50;;;15.20;99.90;;;;;;4935409;28;20117;-79
2023/09/09 03:45:40;;;;;;;38.88;34.67;;;15.40;99.90;;;;;;4951272;28;20145;-81
2023/09/09 03:48:06;;;;;;;38.30;32.08;;;15.30;99.90;;;;;;4934114;28;20520;-79
2023/09/09 03:50:32;;;;;;;51.85;43.78;;;15.30;99.90;;;;;;4918123;28;20729;-81
2023/09/09 03:52:58;;;;;;;34.28;28.10;;;15.30;99.90;;;;;;4936352;28;20145;-76
2023/09/09 03:55:45;;;;;;;54.83;45.08;;;15.40;99.90;;;;;;4931409;28;20154;-79
2023/09/09 03:58:13;;;;;;;61.83;50.05;;;15.30;99.90;;;;;;4912992;29;20659;-81
2023/09/09 04:00:39;;;;;;;56.80;44.03;;;15.40;99.90;;;;;;4899346;29;20142;-78
2023/09/09 04:03:05;;;;;;;43.10;35.63;;;15.40;99.90;;;;;;4915215;29;20138;-78
2023/09/09 04:05:30;;;;;;;35.08;30.55;;;15.50;99.90;;;;;;4914258;29;20055;-80
2023/09/09 04:07:58;;;;;;;32.15;25.17;;;15.40;99.90;;;;;;4914613;29;20123;-78
2023/09/09 04:10:24;;;;;;;32.80;27.40;;;15.30;99.90;;;;;;4910170;29;20070;-81
2023/09/09 04:12:49;;;;;;;28.65;25.65;;;15.30;99.90;;;;;;4912648;29;20067;-78
2023/09/09 04:15:15;;;;;;;36.67;30.80;;;15.40;99.90;;;;;;4914320;29;20062;-82
2023/09/09 04:17:41;;;;;;;41.58;31.88;;;15.20;99.90;;;;;;4915233;29;20055;-77
2023/09/09 04:20:08;;;;;;;31.15;27.63;;;15.10;99.90;;;;;;4912849;29;20117;-80
2023/09/09 04:22:34;;;;;;;34.80;29.63;;;15.10;99.90;;;;;;4911211;29;20059;-79
2023/09/09 04:25:00;;;;;;;43.63;35.55;;;15.10;99.90;;;;;;4913248;28;20063;-77
2023/09/09 04:27:26;;;;;;;43.97;37.65;;;15.10;99.90;;;;;;4899382;29;20102;-77
2023/09/09 04:29:52;;;;;;;60.17;47.45;;;14.90;99.90;;;;;;4928958;28;20059;-79
2023/09/09 04:32:18;;;;;;;61.53;50.35;;;15.10;99.90;;;;;;4935761;28;20058;-78
2023/09/09 04:34:44;;;;;;;63.55;49.97;;;15.20;99.90;;;;;;4934700;28;20162;-79
2023/09/09 04:37:09;;;;;;;60.00;47.35;;;15.00;99.90;;;;;;4935663;28;20063;-79
2023/09/09 04:39:35;;;;;;;60.33;47.65;;;15.20;99.90;;;;;;4932029;28;20059;-80
2023/09/09 04:42:01;;;;;;;57.45;44.10;;;15.20;99.90;;;;;;4934414;28;20055;-78
2023/09/09 04:44:27;;;;;;;65.03;49.03;;;15.30;99.90;;;;;;4935798;28;20062;-81
2023/09/09 04:46:53;;;;;;;72.80;54.88;;;15.30;99.90;;;;;;4935943;28;20058;-80
2023/09/09 04:49:18;;;;;;;67.95;56.78;;;15.30;99.90;;;;;;4936513;28;20571;-80
2023/09/09 04:51:44;;;;;;;78.07;57.33;;;15.30;99.90;;;;;;4939560;28;20483;-81
2023/09/09 04:54:10;;;;;;;62.20;46.30;;;15.40;99.90;;;;;;4939737;28;20047;-78
2023/09/09 04:56:35;;;;;;;53.30;41.67;;;15.40;99.90;;;;;;4940034;28;20528;-81
2023/09/09 04:59:01;;;;;;;48.20;38.00;;;15.40;99.90;;;;;;4940492;28;20050;-81
2023/09/09 05:01:28;;;;;;;44.90;38.15;;;15.40;99.90;;;;;;4939226;28;20563;-77
2023/09/09 05:03:53;;;;;;;53.00;44.65;;;15.40;99.90;;;;;;4939687;28;20062;-82
2023/09/09 05:06:19;;;;;;;66.10;48.90;;;15.40;99.90;;;;;;4939012;28;20117;-79
2023/09/09 05:08:45;;;;;;;62.88;51.40;;;15.40;99.90;;;;;;4931606;28;20055;-79
2023/09/09 05:11:11;;;;;;;65.13;52.35;;;15.40;99.90;;;;;;4935652;28;20055;-77
2023/09/09 05:13:37;;;;;;;54.08;45.05;;;15.50;99.90;;;;;;4939441;28;20066;-78
2023/09/09 05:16:06;;;;;;;49.70;41.60;;;15.60;99.90;;;;;;4940080;28;20058;-81
2023/09/09 05:18:31;;;;;;;54.65;43.45;;;15.50;99.90;;;;;;4929956;28;20899;-79
2023/09/09 05:20:57;;;;;;;48.33;40.28;;;15.60;99.90;;;;;;4920835;28;20066;-82
2023/09/09 05:23:23;;;;;;;53.40;44.85;;;15.60;99.90;;;;;;4940265;28;20073;-79
2023/09/09 05:25:49;;;;;;;57.13;48.25;;;15.60;99.90;;;;;;4937047;28;20161;-78
2023/09/09 05:28:14;;;;;;;60.88;49.65;;;15.60;99.90;;;;;;4940013;28;20058;-81
2023/09/09 05:30:40;;;;;;;58.03;47.90;;;15.70;99.90;;;;;;4939544;28;21104;-77
2023/09/09 05:33:06;;;;;;;57.90;47.63;;;15.80;99.90;;;;;;4938758;28;20065;-77
2023/09/09 05:35:32;;;;;;;50.95;42.78;;;15.90;99.90;;;;;;4927142;28;20575;-80
2023/09/09 05:37:58;;;;;;;54.97;46.85;;;15.90;99.90;;;;;;4939102;28;20054;-78
2023/09/09 05:40:25;;;;;;;52.80;44.55;;;;;;;;;;4938287;28;20210;-82
2023/09/09 05:42:50;;;;;;;53.95;44.80;;;16.00;99.90;;;;;;4937017;28;20852;-81
2023/09/09 05:45:16;;;;;;;46.75;39.50;;;16.10;99.90;;;;;;4938899;28;20061;-77
2023/09/09 05:47:44;;;;;;;43.33;37.95;;;16.20;99.90;;;;;;4938965;28;20062;-80
2023/09/09 05:50:12;;;;;;;44.13;39.05;;;16.30;99.90;;;;;;4938601;28;20051;-80
2023/09/09 05:52:43;;;;;;;42.35;36.58;;;16.80;99.90;;;;;;4939001;28;20245;-79
2023/09/09 05:55:09;;;;;;;38.88;34.35;;;17.60;99.90;;;;;;4927561;29;20051;-81
2023/09/09 05:57:35;;;;;;;36.95;32.90;;;19.10;99.90;;;;;;4937329;28;20450;-81
2023/09/09 06:00:02;;;;;;;33.67;29.30;;;19.10;99.90;;;;;;4937251;28;20054;-83
2023/09/09 06:02:52;;;;;;;30.38;27.10;;;19.90;99.90;;;;;;4937611;28;20257;-80
2023/09/09 06:05:21;;;;;;;30.08;27.20;;;20.70;99.90;;;;;;4954107;28;20816;-81
2023/09/09 06:07:47;;;;;;;29.70;26.50;;;21.40;99.90;;;;;;4932014;29;20099;-82
2023/09/09 06:10:13;;;;;;;26.98;24.27;;;22.00;99.90;;;;;;4948957;28;20118;-81
2023/09/09 06:12:38;;;;;;;26.40;23.65;;;22.60;99.90;;;;;;4936433;28;20046;-81
2023/09/09 06:15:05;;;;;;;27.17;23.27;;;23.10;99.90;;;;;;4921789;28;20917;-81
2023/09/09 06:17:31;;;;;;;23.40;21.02;;;23.70;99.90;;;;;;4921445;28;20062;-80
2023/09/09 06:19:56;;;;;;;21.83;19.63;;;24.20;99.90;;;;;;4932594;28;20592;-81
2023/09/09 06:22:22;;;;;;;22.40;20.05;;;24.50;99.90;;;;;;4931382;28;20082;-81
2023/09/09 06:24:48;;;;;;;22.90;19.75;;;25.00;99.90;;;;;;4938313;28;20360;-80
2023/09/09 06:27:14;;;;;;;22.23;19.95;;;28.30;99.90;;;;;;4938816;28;20055;-81
2023/09/09 06:29:40;;;;;;;22.10;19.90;;;25.30;99.50;;;;;;4938268;28;20066;-81
2023/09/09 06:32:09;;;;;;;22.92;20.58;;;25.40;98.90;;;;;;4938789;28;21054;-82
2023/09/09 06:34:36;;;;;;;23.02;20.63;;;24.80;99.00;;;;;;4938569;28;20141;-82
2023/09/09 06:37:02;;;;;;;23.80;21.23;;;24.20;99.70;;;;;;4937065;28;20527;-82
2023/09/09 06:39:27;;;;;;;23.38;20.52;;;23.50;99.90;;;;;;4932954;28;20059;-82
2023/09/09 06:41:53;;;;;;;24.05;20.67;;;23.30;99.90;;;;;;4937722;28;20050;-82
2023/09/09 06:44:19;;;;;;;22.60;20.25;;;22.90;99.90;;;;;;4926966;28;20059;-83
2023/09/09 06:46:45;;;;;;;23.30;20.90;;;22.80;99.90;;;;;;4946198;28;20054;-84
2023/09/09 06:49:11;;;;;;;22.85;20.55;;;22.90;99.90;;;;;;4948869;28;20051;-81
2023/09/09 06:51:37;;;;;;;23.60;21.10;;;22.60;99.90;;;;;;4952919;28;20089;-82
2023/09/09 06:54:03;;;;;;;23.42;21.13;;;22.30;99.90;;;;;;4953601;28;20054;-81
2023/09/09 06:56:28;;;;;;;26.45;23.70;;;22.10;99.90;;;;;;4935586;28;20050;-81
2023/09/09 06:58:54;;;;;;;27.15;23.80;;;21.90;99.90;;;;;;4946193;28;20051;-82
2023/09/09 07:01:20;;;;;;;27.67;24.88;;;21.80;99.90;;;;;;4944671;29;20062;-82
2023/09/09 07:03:45;;;;;;;25.63;22.90;;;21.70;99.90;;;;;;4948429;28;20054;-81
2023/09/09 07:06:11;;;;;;;28.08;25.27;;;21.60;99.90;;;;;;4950890;28;20419;-80
2023/09/09 07:08:40;;;;;;;28.90;25.83;;;21.40;99.90;;;;;;4948588;28;20061;-83
2023/09/09 07:11:06;;;;;;;29.95;26.52;;;21.50;99.90;;;;;;4940897;28;20278;-82
2023/09/09 07:13:31;;;;;;;27.88;25.10;;;21.50;99.90;;;;;;4943714;28;20055;-80
2023/09/09 07:15:57;;;;;;;26.98;23.88;;;21.50;99.90;;;;;;4941127;28;20050;-84
2023/09/09 07:18:23;;;;;;;30.25;26.25;;;21.50;99.90;;;;;;4936497;28;20054;-81
2023/09/09 07:20:49;;;;;;;28.13;24.60;;;21.50;99.90;;;;;;4937861;28;20066;-80
2023/09/09 07:23:16;;;;;;;26.27;23.77;;;21.40;99.90;;;;;;4932743;28;20492;-80
2023/09/09 07:25:43;;;;;;;25.77;22.98;;;21.50;99.90;;;;;;4925105;28;20544;-79
2023/09/09 07:28:09;;;;;;;28.45;22.40;;;21.60;99.90;;;;;;4936307;28;20066;-79
2023/09/09 07:30:35;;;;;;;27.77;24.48;;;21.60;99.90;;;;;;4935304;28;20062;-78
2023/09/09 07:33:00;;;;;;;25.08;22.40;;;21.60;99.90;;;;;;4946214;28;20401;-76
2023/09/09 07:35:26;;;;;;;24.98;22.27;;;21.60;99.90;;;;;;4922475;28;20630;-80
2023/09/09 07:37:52;;;;;;;26.63;23.80;;;21.70;99.90;;;;;;4927961;28;20058;-79
2023/09/09 07:40:18;;;;;;;26.55;23.83;;;21.70;99.90;;;;;;4935306;28;20066;-78
2023/09/09 07:42:44;;;;;;;27.10;24.40;;;19.80;99.90;;;;;;4935284;28;20583;-79
2023/09/09 07:45:10;;;;;;;26.83;24.00;;;21.70;99.90;;;;;;4934335;28;20145;-78
2023/09/09 07:47:36;;;;;;;27.33;24.05;;;21.90;99.90;;;;;;4945811;28;20089;-78
2023/09/09 07:50:02;;;;;;;27.42;24.83;;;21.90;99.90;;;;;;4933594;28;20069;-78
2023/09/09 07:52:28;;;;;;;27.65;24.85;;;22.00;99.90;;;;;;4933279;28;20046;-78
2023/09/09 07:54:54;;;;;;;25.95;23.40;;;22.10;99.90;;;;;;4935000;28;20058;-78
2023/09/09 07:57:20;;;;;;;27.52;24.63;;;22.20;99.90;;;;;;4933771;28;20047;-78
2023/09/09 07:59:47;;;;;;;26.17;23.23;;;22.20;99.90;;;;;;4918707;28;20671;-78
2023/09/09 08:02:13;;;;;;;26.83;24.00;;;22.30;99.90;;;;;;4934524;28;20058;-78
2023/09/09 08:04:39;;;;;;;25.65;23.15;;;22.40;99.90;;;;;;4934701;28;20058;-78
2023/09/09 08:07:05;;;;;;;27.48;24.60;;;22.40;99.90;;;;;;4944876;28;20239;-78
2023/09/09 08:09:32;;;;;;;25.02;22.42;;;22.50;99.90;;;;;;4947818;28;20061;-79
2023/09/09 08:11:58;;;;;;;24.60;22.00;;;22.60;99.90;;;;;;4924985;28;20519;-77
2023/09/09 08:14:24;;;;;;;22.55;20.27;;;20.10;99.90;;;;;;4934935;28;20047;-78
2023/09/09 08:16:50;;;;;;;24.25;21.70;;;22.80;99.90;;;;;;4949003;28;20051;-79
2023/09/09 08:19:16;;;;;;;12.95;11.73;;;22.90;99.90;;;;;;4919742;28;20055;-78
2023/09/09 08:21:42;;;;;;;15.00;13.57;;;23.20;99.90;;;;;;4927871;28;20061;-78
2023/09/09 08:24:08;;;;;;;20.88;18.75;;;23.70;99.90;;;;;;4927120;28;20059;-80
2023/09/09 08:26:34;;;;;;;21.23;18.92;;;24.90;99.90;;;;;;4939702;28;20187;-81
2023/09/09 08:29:00;;;;;;;18.65;16.05;;;26.30;99.90;;;;;;4940371;28;20058;-77
2023/09/09 08:31:26;;;;;;;14.07;12.57;;;27.60;99.90;;;;;;4955813;28;20717;-78
2023/09/09 08:33:51;;;;;;;7.38;6.68;;;28.60;99.90;;;;;;4934548;28;20059;-77
2023/09/09 08:36:17;;;;;;;11.32;10.20;;;29.40;97.50;;;;;;4937985;28;20054;-75
2023/09/09 08:38:43;;;;;;;11.43;10.20;;;30.00;95.50;;;;;;4931993;28;20137;-78
2023/09/09 08:41:19;;;;;;;6.72;5.90;;;30.40;94.00;;;;;;4954178;28;20068;-73
2023/09/09 08:44:25;;;;;;;13.63;11.88;;;30.80;92.00;;;;;;4938073;28;20078;-76
2023/09/09 08:46:53;;;;;;;8.85;7.40;;;31.20;91.50;;;;;;4937896;28;20934;-75
2023/09/09 08:49:22;;;;;;;13.98;12.25;;;31.70;90.00;;;;;;4922818;28;20065;-76
2023/09/09 08:52:06;;;;;;;14.93;13.20;;;32.00;90.00;;;;;;4938204;28;20158;-76
2023/09/09 08:54:32;;;;;;;11.07;9.98;;;32.60;88.20;;;;;;4938375;28;20059;-73
2023/09/09 08:57:00;;;;;;;12.57;11.48;;;33.10;86.00;;;;;;4922996;28;20058;-79
2023/09/09 08:59:28;;;;;;;13.63;8.48;;;33.50;84.70;;;;;;4938000;28;20050;-77
2023/09/09 09:01:56;;;;;;;11.88;10.63;;;33.70;82.10;;;;;;4914094;28;20069;-76
2023/09/09 09:04:22;;;;;;;10.48;8.57;;;33.80;80.60;;;;;;4938896;28;20393;-83
2023/09/09 09:06:48;;;;;;;11.13;9.65;;;33.90;78.90;;;;;;4914083;28;20065;-78
2023/09/09 09:09:17;;;;;;;8.63;7.50;;;33.90;77.30;;;;;;4931713;28;20052;-80
2023/09/09 09:11:44;;;;;;;6.25;4.57;;;34.00;76.60;;;;;;4937145;28;20680;-78
2023/09/09 09:14:10;;;;;;;6.93;6.28;;;34.00;74.90;;;;;;4929403;28;20130;-77
2023/09/09 09:16:40;;;;;;;5.00;4.30;;;33.90;74.80;;;;;;4924357;28;20051;-78
2023/09/09 09:19:14;;;;;;;7.28;5.47;;;33.80;72.80;;;;;;4938815;28;20347;-75
2023/09/09 09:21:40;;;;;;;12.32;8.75;;;33.80;73.80;;;;;;4953947;28;20164;-76
2023/09/09 09:24:06;;;;;;;6.13;5.53;;;33.90;75.30;;;;;;4935470;29;20074;-76
2023/09/09 09:26:32;;;;;;;4.90;4.32;;;34.10;74.50;;;;;;4938670;28;20042;-76
2023/09/09 09:29:04;;;;;;;4.53;4.07;;;34.20;72.20;;;;;;4932717;28;20127;-76
2023/09/09 09:31:30;;;;;;;6.57;5.82;;;34.20;71.80;;;;;;4937613;28;20125;-76
2023/09/09 09:33:57;;;;;;;6.38;4.95;;;34.50;72.10;;;;;;4919215;28;20091;-77
2023/09/09 09:36:23;;;;;;;5.05;4.10;;;34.60;70.90;;;;;;4931243;28;20845;-77
2023/09/09 09:38:50;;;;;;;9.52;8.50;;;34.60;70.20;;;;;;4920923;28;20059;-76
2023/09/09 09:41:20;;;;;;;6.75;5.50;;;34.40;72.60;;;;;;4938097;28;20047;-78
2023/09/09 09:43:47;;;;;;;5.30;4.80;;;34.40;71.20;;;;;;4934460;28;20453;-78
2023/09/09 09:46:21;;;;;;;10.52;9.23;;;34.30;70.60;;;;;;4935194;28;20070;-75
2023/09/09 09:48:48;;;;;;;8.90;7.13;;;34.20;72.80;;;;;;4934462;28;20061;-76
2023/09/09 09:51:14;;;;;;;4.75;4.25;;;34.00;73.00;;;;;;4937350;28;20145;-77
2023/09/09 09:53:49;;;;;;;7.68;6.90;;;35.70;72.40;;;;;;4919162;28;20603;-81
2023/09/09 09:56:19;;;;;;;5.97;3.88;;;33.70;73.20;;;;;;4936618;28;20087;-78
2023/09/09 09:58:46;;;;;;;5.38;4.57;;;33.50;71.90;;;;;;4926675;28;20050;-76
2023/09/09 10:01:11;;;;;;;6.90;5.00;;;33.30;72.50;;;;;;4937531;28;20501;-78
2023/09/09 10:03:51;;;;;;;7.03;6.30;;;33.30;72.60;;;;;;4925453;28;20098;-78
2023/09/09 10:06:30;;;;;;;4.03;3.38;;;33.50;72.90;;;;;;4936593;28;20417;-75
2023/09/09 10:08:57;;;;;;;6.22;5.63;;;33.70;72.00;;;;;;4937249;28;20069;-78
2023/09/09 10:11:28;;;;;;;7.47;5.38;;;33.90;71.90;;;;;;4936647;28;20720;-78
2023/09/09 10:14:24;;;;;;;8.80;7.45;;;33.80;72.10;;;;;;4937494;28;20149;-76
2023/09/09 10:16:52;;;;;;;6.68;6.00;;;33.70;72.20;;;;;;4926462;28;20081;-78
2023/09/09 10:19:19;;;;;;;6.40;4.65;;;33.80;72.70;;;;;;4935516;28;20563;-76
2023/09/09 10:21:46;;;;;;;4.63;3.53;;;33.80;71.90;;;;;;4912855;29;20055;-78
2023/09/09 10:24:14;;;;;;;10.07;6.35;;;33.60;70.10;;;;;;4910086;28;20051;-80
2023/09/09 10:26:41;;;;;;;7.47;5.32;;;33.30;72.20;;;;;;4937814;28;20055;-81
2023/09/09 10:29:08;;;;;;;6.88;4.75;;;33.00;72.70;;;;;;4930748;28;20059;-76
2023/09/09 10:31:36;;;;;;;8.43;5.50;;;32.70;72.30;;;;;;4937935;28;20166;-77
2023/09/09 10:34:02;;;;;;;6.90;6.07;;;32.30;73.70;;;;;;4934008;28;20551;-79
2023/09/09 10:36:35;;;;;;;5.20;4.38;;;32.30;73.40;;;;;;4932022;28;20067;-80
2023/09/09 10:39:02;;;;;;;8.40;4.95;;;32.30;73.00;;;;;;4917384;28;20058;-76
2023/09/09 10:41:29;;;;;;;7.53;5.82;;;35.10;75.20;;;;;;4935654;28;20163;-80
2023/09/09 10:43:55;;;;;;;10.27;7.60;;;31.60;73.80;;;;;;4934764;28;20149;-82
2023/09/09 10:46:34;;;;;;;9.15;7.18;;;30.10;74.60;;;;;;4951416;28;20054;-77
2023/09/09 10:49:04;;;;;;;7.07;5.90;;;30.70;76.90;;;;;;4915434;28;20055;-77
2023/09/09 10:51:45;;;;;;;8.10;6.47;;;30.30;76.90;;;;;;4918851;29;20059;-79
2023/09/09 10:54:12;;;;;;;11.18;7.43;;;29.90;77.30;;;;;;4914656;29;20063;-79
2023/09/09 10:56:48;;;;;;;6.05;5.00;;;29.40;80.20;;;;;;4915472;28;20150;-76
2023/09/09 10:59:17;;;;;;;11.82;7.18;;;29.10;79.50;;;;;;4911958;29;20877;-77
2023/09/09 11:01:43;;;;;;;10.68;8.77;;;28.90;80.50;;;;;;4910170;29;20074;-77
2023/09/09 11:04:20;;;;;;;9.45;6.53;;;28.70;83.20;;;;;;4934687;28;20646;-75
2023/09/09 11:07:07;;;;;;;11.13;6.80;;;28.50;83.40;;;;;;4906677;29;20090;-79
2023/09/09 11:09:34;;;;;;;9.25;7.82;;;28.00;85.10;;;;;;4930488;29;20047;-76
2023/09/09 11:11:59;;;;;;;9.45;8.45;;;28.10;84.40;;;;;;4912717;29;20311;-78
2023/09/09 11:14:32;;;;;;;11.20;8.05;;;28.00;85.20;;;;;;4914021;29;20740;-76
2023/09/09 11:16:58;;;;;;;5.72;4.85;;;27.90;85.90;;;;;;4912338;28;21238;-79
2023/09/09 11:19:24;;;;;;;12.25;10.68;;;27.80;84.80;;;;;;4930676;28;20055;-76
2023/09/09 11:21:51;;;;;;;7.72;6.28;;;27.70;87.10;;;;;;4907367;29;20074;-81
2023/09/09 11:24:18;;;;;;;15.27;12.73;;;27.60;86.20;;;;;;4890358;29;20051;-80
2023/09/09 11:26:45;;;;;;;11.93;7.07;;;27.60;88.60;;;;;;4899643;29;20063;-85
2023/09/09 11:29:12;;;;;;;9.52;7.90;;;27.60;88.30;;;;;;4915976;29;20668;-77
2023/09/09 11:31:38;;;;;;;14.73;8.10;;;27.70;90.30;;;;;;4917498;29;20093;-79
2023/09/09 11:34:05;;;;;;;8.80;6.63;;;27.60;90.00;;;;;;4913358;29;20127;-78
2023/09/09 11:36:32;;;;;;;8.50;5.03;;;27.60;89.30;;;;;;4909960;29;20070;-79
2023/09/09 11:39:03;;;;;;;6.28;5.68;;;27.50;87.80;;;;;;4929801;29;20071;-79
2023/09/09 11:41:30;;;;;;;6.45;4.97;;;27.50;88.30;;;;;;4911187;29;20051;-78
2023/09/09 11:44:01;;;;;;;9.38;5.00;;;27.40;87.50;;;;;;4909074;29;20058;-77
2023/09/09 11:46:38;;;;;;;13.82;9.55;;;27.40;87.70;;;;;;4923030;28;20068;-76
2023/09/09 11:49:05;;;;;;;9.60;7.22;;;27.40;89.40;;;;;;4926494;29;20067;-81
2023/09/09 11:51:32;;;;;;;10.55;8.15;;;27.30;90.50;;;;;;4910788;29;20062;-76
2023/09/09 11:53:59;;;;;;;11.32;8.45;;;27.10;91.60;;;;;;4917276;29;20059;-79
2023/09/09 11:56:26;;;;;;;8.82;7.55;;;27.20;90.70;;;;;;4918010;29;20087;-79
2023/09/09 11:58:52;;;;;;;10.43;8.00;;;27.30;90.50;;;;;;4895006;29;20060;-78
2023/09/09 12:01:19;;;;;;;12.60;7.82;;;27.20;90.90;;;;;;4901550;28;20581;-76
2023/09/09 12:03:48;;;;;;;11.68;8.15;;;27.10;91.20;;;;;;4916073;29;20055;-77
2023/09/09 12:06:17;;;;;;;6.18;5.55;;;26.80;91.40;;;;;;4915922;29;20087;-80
2023/09/09 12:08:43;;;;;;;8.57;7.50;;;27.10;91.20;;;;;;4917565;29;20063;-78
2023/09/09 12:11:10;;;;;;;10.05;8.20;;;27.10;91.40;;;;;;4915705;29;20059;-78
2023/09/09 12:13:37;;;;;;;9.75;6.82;;;27.20;91.70;;;;;;4913516;28;20094;-79
2023/09/09 12:16:04;;;;;;;17.35;8.52;;;27.10;91.90;;;;;;4948140;28;20972;-78
2023/09/09 12:18:30;;;;;;;14.77;9.63;;;27.10;91.90;;;;;;4900544;29;20051;-83
2023/09/09 12:21:07;;;;;;;11.98;8.57;;;27.10;92.20;;;;;;4915691;29;20097;-77
2023/09/09 12:23:35;;;;;;;10.10;6.47;;;27.20;92.50;;;;;;4907773;29;20075;-76
2023/09/09 12:26:14;;;;;;;10.40;7.32;;;27.30;91.90;;;;;;4916613;29;20062;-77
2023/09/09 12:28:42;;;;;;;11.55;7.68;;;27.40;92.20;;;;;;4897989;29;20074;-80
2023/09/09 12:31:09;;;;;;;7.25;5.38;;;27.40;92.10;;;;;;4916553;29;20066;-77
2023/09/09 12:33:43;;;;;;;10.75;7.00;;;27.40;91.50;;;;;;4900777;29;20055;-73